JRR755C LDZA-EPSC
Flight info
| Callsign | JRR755C |
|---|---|
| Flight time | 1h 28m |
| Altitude | 37000 |
| Route | KOPRY DCT KUVEX DCT LALES DCT REGLI L617 ADVAB L619 DENKO L996 XERBI DCT FORFE DCT ZAWIK |
| Aircraft | B38M/M-SDE1FGHILORVWXY/HB1 |
Departure
| Time | 2026-04-25 16:51 |
|---|---|
| Airport | Zagreb Franjo Tuđman International Airport (LDZA) |
Arrival
| Time | 2026-04-25 18:19 |
|---|---|
| Airport | Solidarity Szczecin–Goleniów Airport (EPSC) |
| Time | Latitude | Longitude | Altitude | Speed | Heading |
|---|---|---|---|---|---|
| 2026-04-25 16:17 | 45.74131 | 16.07748 | 361 ft | 0 kts | 136° |
| 2026-04-25 16:38 | 45.74144 | 16.07731 | 365 ft | 3 kts | 141° |
| 2026-04-25 16:39 | 45.74162 | 16.07711 | 364 ft | 3 kts | 140° |
| 2026-04-25 16:39 | 45.74177 | 16.07692 | 361 ft | 3 kts | 129° |
| 2026-04-25 16:39 | 45.74184 | 16.07667 | 362 ft | 3 kts | 77° |
| 2026-04-25 16:39 | 45.74173 | 16.07642 | 362 ft | 3 kts | 46° |
| 2026-04-25 16:40 | 45.74162 | 16.07624 | 363 ft | 0 kts | 46° |
| 2026-04-25 16:43 | 45.74163 | 16.07626 | 363 ft | 1 kts | 46° |
| 2026-04-25 16:44 | 45.74183 | 16.07657 | 362 ft | 8 kts | 46° |
| 2026-04-25 16:44 | 45.74242 | 16.07747 | 362 ft | 17 kts | 46° |
| 2026-04-25 16:44 | 45.74339 | 16.07890 | 362 ft | 12 kts | 37° |
| 2026-04-25 16:44 | 45.74415 | 16.07868 | 364 ft | 13 kts | 315° |
| 2026-04-25 16:45 | 45.74485 | 16.07773 | 362 ft | 15 kts | 317° |
| 2026-04-25 16:45 | 45.74576 | 16.07713 | 361 ft | 16 kts | 23° |
| 2026-04-25 16:45 | 45.74596 | 16.07732 | 365 ft | 0 kts | 41° |
| 2026-04-25 16:45 | 45.74598 | 16.07743 | 363 ft | 1 kts | 82° |
| 2026-04-25 16:46 | 45.74596 | 16.07746 | 363 ft | 0 kts | 116° |
| 2026-04-25 16:46 | 45.74595 | 16.07746 | 363 ft | 0 kts | 134° |
| 2026-04-25 16:46 | 45.74594 | 16.07746 | 363 ft | 0 kts | 156° |
| 2026-04-25 16:46 | 45.74593 | 16.07745 | 363 ft | 0 kts | 173° |
| 2026-04-25 16:47 | 45.74585 | 16.07736 | 368 ft | 3 kts | 227° |
| 2026-04-25 16:47 | 45.74549 | 16.07671 | 363 ft | 14 kts | 234° |
| 2026-04-25 16:47 | 45.74463 | 16.07532 | 363 ft | 24 kts | 226° |
| 2026-04-25 16:47 | 45.74326 | 16.07322 | 368 ft | 34 kts | 227° |
| 2026-04-25 16:48 | 45.74158 | 16.07067 | 363 ft | 35 kts | 227° |
| 2026-04-25 16:48 | 45.73984 | 16.06804 | 364 ft | 37 kts | 226° |
| 2026-04-25 16:48 | 45.73810 | 16.06538 | 367 ft | 37 kts | 226° |
| 2026-04-25 16:48 | 45.73635 | 16.06272 | 363 ft | 33 kts | 227° |
| 2026-04-25 16:49 | 45.73476 | 16.06032 | 364 ft | 34 kts | 227° |
| 2026-04-25 16:49 | 45.73313 | 16.05784 | 368 ft | 34 kts | 226° |
| 2026-04-25 16:49 | 45.73156 | 16.05544 | 361 ft | 25 kts | 227° |
| 2026-04-25 16:49 | 45.73095 | 16.05406 | 365 ft | 16 kts | 264° |
| 2026-04-25 16:50 | 45.73146 | 16.05276 | 363 ft | 16 kts | 327° |
| 2026-04-25 16:50 | 45.73244 | 16.05284 | 367 ft | 16 kts | 42° |
| 2026-04-25 16:50 | 45.73330 | 16.05410 | 366 ft | 21 kts | 47° |
| 2026-04-25 16:50 | 45.73556 | 16.05762 | 364 ft | 82 kts | 47° |
| 2026-04-25 16:51 | 45.74087 | 16.06564 | 369 ft | 140 kts | 46° |
| 2026-04-25 16:51 | 45.74858 | 16.07737 | 480 ft | 173 kts | 48° |
| 2026-04-25 16:51 | 45.75696 | 16.09014 | 1099 ft | 178 kts | 47° |
| 2026-04-25 16:51 | 45.76264 | 16.09881 | 1493 ft | 183 kts | 47° |
| 2026-04-25 16:52 | 45.77493 | 16.11657 | 2257 ft | 192 kts | 46° |
| 2026-04-25 16:52 | 45.78450 | 16.13053 | 2861 ft | 195 kts | 43° |
| 2026-04-25 16:52 | 45.79391 | 16.14369 | 3582 ft | 194 kts | 43° |
| 2026-04-25 16:52 | 45.80402 | 16.15829 | 3834 ft | 217 kts | 44° |
| 2026-04-25 16:53 | 45.82685 | 16.19304 | 4478 ft | 253 kts | 45° |
| 2026-04-25 16:53 | 45.83869 | 16.21151 | 5256 ft | 260 kts | 45° |
| 2026-04-25 16:53 | 45.85110 | 16.23107 | 5457 ft | 268 kts | 45° |
| 2026-04-25 16:54 | 45.86371 | 16.25107 | 5608 ft | 270 kts | 45° |
| 2026-04-25 16:54 | 45.87636 | 16.27124 | 5767 ft | 271 kts | 45° |
| 2026-04-25 16:54 | 45.88884 | 16.29115 | 5903 ft | 271 kts | 45° |
| 2026-04-25 16:54 | 45.90087 | 16.31205 | 5968 ft | 272 kts | 50° |
| 2026-04-25 16:55 | 45.91224 | 16.33376 | 5984 ft | 271 kts | 49° |
| 2026-04-25 16:55 | 45.92368 | 16.35541 | 5994 ft | 271 kts | 49° |
| 2026-04-25 16:55 | 45.93518 | 16.37708 | 6003 ft | 271 kts | 49° |
| 2026-04-25 16:55 | 45.94650 | 16.39834 | 6001 ft | 270 kts | 49° |
| 2026-04-25 16:56 | 45.95785 | 16.41996 | 5986 ft | 270 kts | 49° |
| 2026-04-25 16:56 | 45.96909 | 16.44144 | 6459 ft | 270 kts | 49° |
| 2026-04-25 16:56 | 45.98045 | 16.46308 | 7269 ft | 271 kts | 49° |
| 2026-04-25 16:56 | 45.99195 | 16.48501 | 7980 ft | 275 kts | 49° |
| 2026-04-25 16:57 | 46.00339 | 16.50684 | 8723 ft | 277 kts | 49° |
| 2026-04-25 16:57 | 46.01118 | 16.52173 | 9202 ft | 280 kts | 49° |
| 2026-04-25 16:57 | 46.02689 | 16.55175 | 10129 ft | 285 kts | 49° |
| 2026-04-25 16:57 | 46.03925 | 16.57538 | 10456 ft | 303 kts | 49° |
| 2026-04-25 16:58 | 46.05238 | 16.60052 | 10684 ft | 322 kts | 50° |
| 2026-04-25 16:58 | 46.06604 | 16.62671 | 11032 ft | 335 kts | 50° |
| 2026-04-25 16:58 | 46.08009 | 16.65368 | 11685 ft | 337 kts | 50° |
| 2026-04-25 16:58 | 46.09431 | 16.68097 | 12336 ft | 342 kts | 50° |
| 2026-04-25 16:59 | 46.10869 | 16.70861 | 13054 ft | 345 kts | 50° |
| 2026-04-25 16:59 | 46.12308 | 16.73629 | 13775 ft | 349 kts | 50° |
| 2026-04-25 16:59 | 46.13780 | 16.76465 | 14406 ft | 353 kts | 51° |
| 2026-04-25 16:59 | 46.15246 | 16.79291 | 15063 ft | 357 kts | 51° |
| 2026-04-25 17:00 | 46.16750 | 16.82193 | 15728 ft | 360 kts | 51° |
| 2026-04-25 17:00 | 46.18245 | 16.85080 | 16368 ft | 364 kts | 51° |
| 2026-04-25 17:00 | 46.19773 | 16.88036 | 17005 ft | 367 kts | 51° |
| 2026-04-25 17:00 | 46.21313 | 16.91014 | 17642 ft | 371 kts | 51° |
| 2026-04-25 17:01 | 46.22933 | 16.93874 | 18229 ft | 372 kts | 41° |
| 2026-04-25 17:01 | 46.25078 | 16.95963 | 18762 ft | 372 kts | 23° |
| 2026-04-25 17:01 | 46.27563 | 16.97049 | 19271 ft | 374 kts | 12° |
| 2026-04-25 17:01 | 46.30085 | 16.97842 | 19783 ft | 377 kts | 11° |
| 2026-04-25 17:02 | 46.32670 | 16.98612 | 20318 ft | 379 kts | 11° |
| 2026-04-25 17:02 | 46.35286 | 16.99367 | 20839 ft | 382 kts | 11° |
| 2026-04-25 17:02 | 46.37901 | 17.00104 | 21359 ft | 385 kts | 10° |
| 2026-04-25 17:02 | 46.40506 | 17.00832 | 21865 ft | 387 kts | 10° |
| 2026-04-25 17:03 | 46.43184 | 17.01577 | 22371 ft | 390 kts | 10° |
| 2026-04-25 17:03 | 46.45844 | 17.02317 | 22886 ft | 393 kts | 10° |
| 2026-04-25 17:03 | 46.48557 | 17.03071 | 23400 ft | 396 kts | 10° |
| 2026-04-25 17:03 | 46.51249 | 17.03821 | 23833 ft | 399 kts | 10° |
| 2026-04-25 17:04 | 46.53994 | 17.04586 | 24271 ft | 401 kts | 10° |
| 2026-04-25 17:04 | 46.56759 | 17.05357 | 24714 ft | 404 kts | 10° |
| 2026-04-25 17:04 | 46.59533 | 17.06131 | 25140 ft | 406 kts | 10° |
| 2026-04-25 17:04 | 46.62289 | 17.06902 | 25562 ft | 409 kts | 10° |
| 2026-04-25 17:05 | 46.65102 | 17.07690 | 25976 ft | 411 kts | 10° |
| 2026-04-25 17:05 | 46.70731 | 17.09267 | 26787 ft | 416 kts | 10° |
| 2026-04-25 17:05 | 46.73579 | 17.10066 | 27178 ft | 418 kts | 10° |
| 2026-04-25 17:06 | 46.76445 | 17.10872 | 27566 ft | 421 kts | 10° |
| 2026-04-25 17:06 | 46.79328 | 17.11683 | 27954 ft | 423 kts | 10° |
| 2026-04-25 17:06 | 46.82229 | 17.12499 | 28338 ft | 425 kts | 10° |
| 2026-04-25 17:06 | 46.85146 | 17.13322 | 28708 ft | 427 kts | 10° |
| 2026-04-25 17:07 | 46.88083 | 17.14151 | 29078 ft | 430 kts | 10° |
| 2026-04-25 17:07 | 46.91028 | 17.14983 | 29439 ft | 432 kts | 10° |
| 2026-04-25 17:07 | 46.93954 | 17.15810 | 29790 ft | 434 kts | 10° |
| 2026-04-25 17:07 | 46.96938 | 17.16656 | 30109 ft | 436 kts | 10° |
| 2026-04-25 17:08 | 46.99928 | 17.17504 | 30416 ft | 438 kts | 10° |
| 2026-04-25 17:08 | 47.02924 | 17.18354 | 30752 ft | 438 kts | 10° |
| 2026-04-25 17:08 | 47.05934 | 17.19209 | 31066 ft | 440 kts | 10° |
| 2026-04-25 17:08 | 47.08912 | 17.20057 | 31364 ft | 441 kts | 10° |
| 2026-04-25 17:09 | 47.11952 | 17.20923 | 31769 ft | 440 kts | 10° |
| 2026-04-25 17:09 | 47.14919 | 17.21769 | 32218 ft | 437 kts | 10° |
| 2026-04-25 17:09 | 47.17916 | 17.22624 | 32668 ft | 435 kts | 10° |
| 2026-04-25 17:09 | 47.20864 | 17.23467 | 33093 ft | 434 kts | 10° |
| 2026-04-25 17:10 | 47.23823 | 17.24314 | 33529 ft | 431 kts | 10° |
| 2026-04-25 17:10 | 47.26778 | 17.25161 | 33969 ft | 429 kts | 10° |
| 2026-04-25 17:10 | 47.29673 | 17.25990 | 34329 ft | 428 kts | 10° |
| 2026-04-25 17:10 | 47.32597 | 17.26830 | 34640 ft | 427 kts | 10° |
| 2026-04-25 17:11 | 47.35528 | 17.27672 | 34975 ft | 426 kts | 10° |
| 2026-04-25 17:11 | 47.38395 | 17.28497 | 35280 ft | 425 kts | 9° |
| 2026-04-25 17:11 | 47.41294 | 17.29332 | 35590 ft | 424 kts | 9° |
| 2026-04-25 17:11 | 47.44213 | 17.30174 | 35869 ft | 423 kts | 9° |
| 2026-04-25 17:12 | 47.47074 | 17.31000 | 36154 ft | 422 kts | 9° |
| 2026-04-25 17:12 | 47.49953 | 17.31833 | 36434 ft | 421 kts | 9° |
| 2026-04-25 17:12 | 47.52834 | 17.32666 | 36709 ft | 421 kts | 9° |
| 2026-04-25 17:12 | 47.55722 | 17.33502 | 36925 ft | 421 kts | 9° |
| 2026-04-25 17:13 | 47.59538 | 17.34610 | 36962 ft | 420 kts | 9° |
| 2026-04-25 17:13 | 47.67165 | 17.36827 | 36949 ft | 420 kts | 9° |
| 2026-04-25 17:14 | 47.72927 | 17.38506 | 36945 ft | 420 kts | 9° |
| 2026-04-25 17:14 | 47.78636 | 17.40174 | 36944 ft | 420 kts | 9° |
| 2026-04-25 17:15 | 47.84356 | 17.41848 | 36945 ft | 420 kts | 9° |
| 2026-04-25 17:15 | 47.90080 | 17.43522 | 36943 ft | 420 kts | 8° |
| 2026-04-25 17:16 | 47.95856 | 17.45131 | 36943 ft | 420 kts | 8° |
| 2026-04-25 17:16 | 48.01586 | 17.46735 | 36948 ft | 421 kts | 8° |
| 2026-04-25 17:17 | 48.07337 | 17.48349 | 36939 ft | 421 kts | 8° |
| 2026-04-25 17:17 | 48.13100 | 17.49970 | 36940 ft | 421 kts | 8° |
| 2026-04-25 17:18 | 48.18829 | 17.51585 | 36941 ft | 421 kts | 8° |
| 2026-04-25 17:18 | 48.24608 | 17.53218 | 36938 ft | 421 kts | 8° |
| 2026-04-25 17:19 | 48.30353 | 17.54846 | 36939 ft | 421 kts | 8° |
| 2026-04-25 17:19 | 48.36081 | 17.56471 | 36943 ft | 421 kts | 7° |
| 2026-04-25 17:20 | 48.41860 | 17.58115 | 36940 ft | 421 kts | 7° |
| 2026-04-25 17:20 | 48.47608 | 17.59755 | 36943 ft | 422 kts | 7° |
| 2026-04-25 17:21 | 48.53356 | 17.61398 | 36944 ft | 421 kts | 7° |
| 2026-04-25 17:21 | 48.59108 | 17.63046 | 36940 ft | 422 kts | 7° |
| 2026-04-25 17:22 | 48.62981 | 17.64157 | 36939 ft | 422 kts | 7° |
| 2026-04-25 17:22 | 48.70668 | 17.66369 | 36943 ft | 422 kts | 7° |
| 2026-04-25 17:23 | 48.76401 | 17.68024 | 36940 ft | 422 kts | 7° |
| 2026-04-25 17:23 | 48.82198 | 17.69699 | 36944 ft | 422 kts | 7° |
| 2026-04-25 17:24 | 48.87968 | 17.71248 | 36943 ft | 421 kts | 5° |
| 2026-04-25 17:24 | 48.93747 | 17.72617 | 36947 ft | 422 kts | 5° |
| 2026-04-25 17:25 | 48.99525 | 17.74010 | 36951 ft | 421 kts | 5° |
| 2026-04-25 17:25 | 49.05315 | 17.75410 | 36950 ft | 422 kts | 5° |
| 2026-04-25 17:26 | 49.10158 | 17.76584 | 36956 ft | 422 kts | 5° |
| 2026-04-25 17:26 | 49.15939 | 17.77988 | 36951 ft | 422 kts | 5° |
| 2026-04-25 17:27 | 49.21718 | 17.79396 | 36956 ft | 422 kts | 5° |
| 2026-04-25 17:27 | 49.26552 | 17.80575 | 36959 ft | 422 kts | 5° |
| 2026-04-25 17:28 | 49.33333 | 17.82234 | 36945 ft | 422 kts | 5° |
| 2026-04-25 17:28 | 49.39103 | 17.83650 | 36956 ft | 422 kts | 5° |
| 2026-04-25 17:29 | 49.44930 | 17.85082 | 36954 ft | 422 kts | 4° |
| 2026-04-25 17:29 | 49.50728 | 17.86511 | 36945 ft | 422 kts | 4° |
| 2026-04-25 17:30 | 49.56502 | 17.87938 | 36948 ft | 422 kts | 4° |
| 2026-04-25 17:30 | 49.62323 | 17.89379 | 36946 ft | 422 kts | 4° |
| 2026-04-25 17:31 | 49.68117 | 17.90818 | 36943 ft | 422 kts | 4° |
| 2026-04-25 17:31 | 49.73934 | 17.92265 | 36945 ft | 423 kts | 4° |
| 2026-04-25 17:32 | 49.79719 | 17.93708 | 36937 ft | 422 kts | 4° |
| 2026-04-25 17:32 | 49.85533 | 17.95162 | 36943 ft | 423 kts | 4° |
| 2026-04-25 17:33 | 49.91335 | 17.96616 | 36940 ft | 423 kts | 4° |
| 2026-04-25 17:33 | 49.94245 | 17.97347 | 37088 ft | 424 kts | 2° |
| 2026-04-25 17:33 | 49.97180 | 17.98084 | 36922 ft | 430 kts | 2° |
| 2026-04-25 17:34 | 50.03112 | 17.98802 | 36918 ft | 421 kts | 343° |
| 2026-04-25 17:34 | 50.08631 | 17.96171 | 36722 ft | 416 kts | 335° |
| 2026-04-25 17:35 | 50.11365 | 17.94676 | 36478 ft | 415 kts | 335° |
| 2026-04-25 17:35 | 50.14046 | 17.93171 | 36247 ft | 414 kts | 334° |
| 2026-04-25 17:35 | 50.16767 | 17.91616 | 36022 ft | 414 kts | 334° |
| 2026-04-25 17:35 | 50.19482 | 17.90050 | 35916 ft | 413 kts | 334° |
| 2026-04-25 17:36 | 50.24870 | 17.86926 | 35925 ft | 415 kts | 334° |
| 2026-04-25 17:36 | 50.30266 | 17.83787 | 35920 ft | 414 kts | 334° |
| 2026-04-25 17:37 | 50.35660 | 17.80642 | 35922 ft | 414 kts | 334° |
| 2026-04-25 17:37 | 50.41089 | 17.77471 | 35919 ft | 414 kts | 334° |
| 2026-04-25 17:38 | 50.45560 | 17.74854 | 35920 ft | 414 kts | 334° |
| 2026-04-25 17:38 | 50.51862 | 17.71156 | 35919 ft | 414 kts | 334° |
| 2026-04-25 17:39 | 50.57254 | 17.67984 | 35916 ft | 414 kts | 334° |
| 2026-04-25 17:39 | 50.62645 | 17.64805 | 35915 ft | 414 kts | 334° |
| 2026-04-25 17:40 | 50.68036 | 17.61617 | 35918 ft | 414 kts | 334° |
| 2026-04-25 17:40 | 50.73422 | 17.58425 | 35919 ft | 414 kts | 334° |
| 2026-04-25 17:41 | 50.78827 | 17.55204 | 35914 ft | 414 kts | 334° |
| 2026-04-25 17:41 | 50.84195 | 17.51989 | 35913 ft | 414 kts | 334° |
| 2026-04-25 17:42 | 50.89577 | 17.48774 | 35904 ft | 413 kts | 334° |
| 2026-04-25 17:42 | 50.94947 | 17.45558 | 35918 ft | 413 kts | 334° |
| 2026-04-25 17:43 | 51.00301 | 17.42344 | 35911 ft | 413 kts | 334° |
| 2026-04-25 17:43 | 51.05708 | 17.39090 | 35909 ft | 413 kts | 334° |
| 2026-04-25 17:44 | 51.11069 | 17.35857 | 35907 ft | 412 kts | 334° |
| 2026-04-25 17:44 | 51.16419 | 17.32621 | 35906 ft | 412 kts | 334° |
| 2026-04-25 17:45 | 51.20873 | 17.29919 | 35905 ft | 411 kts | 334° |
| 2026-04-25 17:45 | 51.27095 | 17.26137 | 35905 ft | 411 kts | 334° |
| 2026-04-25 17:46 | 51.32435 | 17.22881 | 35908 ft | 411 kts | 334° |
| 2026-04-25 17:46 | 51.37758 | 17.19628 | 35900 ft | 410 kts | 334° |
| 2026-04-25 17:47 | 51.43107 | 17.16351 | 35900 ft | 410 kts | 334° |
| 2026-04-25 17:47 | 51.48412 | 17.13093 | 35898 ft | 409 kts | 334° |
| 2026-04-25 17:48 | 51.56384 | 17.08181 | 35896 ft | 409 kts | 334° |
| 2026-04-25 17:49 | 51.61696 | 17.04899 | 35898 ft | 408 kts | 334° |
| 2026-04-25 17:49 | 51.66957 | 17.01639 | 35894 ft | 407 kts | 334° |
| 2026-04-25 17:50 | 51.72236 | 16.98359 | 35888 ft | 406 kts | 333° |
| 2026-04-25 17:50 | 51.77511 | 16.95075 | 35891 ft | 406 kts | 333° |
| 2026-04-25 17:51 | 51.82755 | 16.91801 | 35891 ft | 405 kts | 333° |
| 2026-04-25 17:51 | 51.88002 | 16.88517 | 35892 ft | 404 kts | 333° |
| 2026-04-25 17:52 | 51.93229 | 16.85237 | 35889 ft | 403 kts | 333° |
| 2026-04-25 17:52 | 51.98470 | 16.81941 | 35892 ft | 402 kts | 333° |
| 2026-04-25 17:53 | 52.03654 | 16.78672 | 35883 ft | 401 kts | 333° |
| 2026-04-25 17:53 | 52.08848 | 16.75388 | 35884 ft | 400 kts | 333° |
| 2026-04-25 17:54 | 52.13807 | 16.71584 | 35763 ft | 389 kts | 319° |
| 2026-04-25 17:54 | 52.15952 | 16.68879 | 35557 ft | 388 kts | 319° |
| 2026-04-25 17:54 | 52.18103 | 16.66201 | 35350 ft | 387 kts | 319° |
| 2026-04-25 17:54 | 52.20216 | 16.63532 | 35104 ft | 384 kts | 319° |
| 2026-04-25 17:55 | 52.22329 | 16.60839 | 34264 ft | 387 kts | 318° |
| 2026-04-25 17:55 | 52.24439 | 16.58133 | 33256 ft | 392 kts | 318° |
| 2026-04-25 17:55 | 52.26584 | 16.55376 | 32588 ft | 387 kts | 317° |
| 2026-04-25 17:55 | 52.28675 | 16.52683 | 32141 ft | 378 kts | 317° |
| 2026-04-25 17:56 | 52.30707 | 16.50062 | 31651 ft | 374 kts | 317° |
| 2026-04-25 17:56 | 52.32748 | 16.47426 | 31100 ft | 370 kts | 317° |
| 2026-04-25 17:56 | 52.34765 | 16.44819 | 30565 ft | 367 kts | 317° |
| 2026-04-25 17:56 | 52.36738 | 16.42265 | 30044 ft | 364 kts | 316° |
| 2026-04-25 17:57 | 52.38727 | 16.39689 | 29443 ft | 362 kts | 316° |
| 2026-04-25 17:57 | 52.40668 | 16.37171 | 28886 ft | 358 kts | 316° |
| 2026-04-25 17:57 | 52.42457 | 16.34848 | 28413 ft | 354 kts | 316° |
| 2026-04-25 17:57 | 52.43114 | 16.33995 | 28230 ft | 353 kts | 316° |
| 2026-04-25 17:58 | 52.46266 | 16.29893 | 27394 ft | 347 kts | 316° |
| 2026-04-25 17:58 | 52.48154 | 16.27433 | 26899 ft | 343 kts | 316° |
| 2026-04-25 17:58 | 52.50003 | 16.25021 | 26408 ft | 340 kts | 316° |
| 2026-04-25 17:58 | 52.51854 | 16.22603 | 25919 ft | 338 kts | 316° |
| 2026-04-25 17:59 | 52.53675 | 16.20225 | 25427 ft | 336 kts | 315° |
| 2026-04-25 17:59 | 52.55502 | 16.17830 | 24858 ft | 336 kts | 315° |
| 2026-04-25 17:59 | 52.57332 | 16.15430 | 24386 ft | 333 kts | 315° |
| 2026-04-25 17:59 | 52.59140 | 16.13058 | 23920 ft | 331 kts | 315° |
| 2026-04-25 18:00 | 52.60922 | 16.10717 | 23469 ft | 329 kts | 315° |
| 2026-04-25 18:00 | 52.62116 | 16.09146 | 23100 ft | 328 kts | 315° |
| 2026-04-25 18:00 | 52.64493 | 16.06017 | 22438 ft | 325 kts | 315° |
| 2026-04-25 18:00 | 52.66231 | 16.03728 | 21985 ft | 321 kts | 315° |
| 2026-04-25 18:01 | 52.67976 | 16.01425 | 21540 ft | 318 kts | 315° |
| 2026-04-25 18:01 | 52.69700 | 15.99148 | 21115 ft | 315 kts | 315° |
| 2026-04-25 18:01 | 52.71384 | 15.96922 | 20699 ft | 312 kts | 315° |
| 2026-04-25 18:01 | 52.73070 | 15.94690 | 20283 ft | 309 kts | 315° |
| 2026-04-25 18:02 | 52.74746 | 15.92469 | 19868 ft | 306 kts | 315° |
| 2026-04-25 18:02 | 52.76388 | 15.90292 | 19464 ft | 304 kts | 315° |
| 2026-04-25 18:02 | 52.78037 | 15.88103 | 19073 ft | 302 kts | 315° |
| 2026-04-25 18:02 | 52.79668 | 15.85936 | 18677 ft | 299 kts | 315° |
| 2026-04-25 18:03 | 52.81294 | 15.83801 | 18279 ft | 299 kts | 318° |
| 2026-04-25 18:03 | 52.83146 | 15.82220 | 17802 ft | 306 kts | 327° |
| 2026-04-25 18:03 | 52.85075 | 15.80754 | 17387 ft | 302 kts | 327° |
| 2026-04-25 18:03 | 52.86975 | 15.79318 | 17013 ft | 299 kts | 327° |
| 2026-04-25 18:04 | 52.88856 | 15.77904 | 16646 ft | 296 kts | 327° |
| 2026-04-25 18:04 | 52.90727 | 15.76500 | 16273 ft | 293 kts | 327° |
| 2026-04-25 18:04 | 52.92554 | 15.75129 | 15917 ft | 289 kts | 327° |
| 2026-04-25 18:04 | 52.94392 | 15.73751 | 15549 ft | 287 kts | 327° |
| 2026-04-25 18:05 | 52.96191 | 15.72401 | 15194 ft | 285 kts | 327° |
| 2026-04-25 18:05 | 52.98023 | 15.71024 | 14829 ft | 289 kts | 327° |
| 2026-04-25 18:05 | 52.99727 | 15.69742 | 14482 ft | 293 kts | 327° |
| 2026-04-25 18:05 | 53.01599 | 15.68334 | 14117 ft | 293 kts | 327° |
| 2026-04-25 18:06 | 53.03453 | 15.67013 | 13757 ft | 297 kts | 334° |
| 2026-04-25 18:06 | 53.05487 | 15.66162 | 13322 ft | 299 kts | 337° |
| 2026-04-25 18:06 | 53.07499 | 15.65312 | 12948 ft | 295 kts | 336° |
| 2026-04-25 18:06 | 53.09453 | 15.64462 | 12590 ft | 292 kts | 336° |
| 2026-04-25 18:07 | 53.11408 | 15.63595 | 12234 ft | 288 kts | 336° |
| 2026-04-25 18:07 | 53.13333 | 15.62730 | 11889 ft | 285 kts | 336° |
| 2026-04-25 18:07 | 53.15241 | 15.61867 | 11535 ft | 282 kts | 336° |
| 2026-04-25 18:07 | 53.17106 | 15.61020 | 11203 ft | 279 kts | 336° |
| 2026-04-25 18:08 | 53.18971 | 15.60171 | 10850 ft | 276 kts | 336° |
| 2026-04-25 18:08 | 53.20816 | 15.59330 | 10660 ft | 269 kts | 336° |
| 2026-04-25 18:08 | 53.22541 | 15.58447 | 10519 ft | 254 kts | 329° |
| 2026-04-25 18:08 | 53.24121 | 15.57234 | 10374 ft | 244 kts | 327° |
| 2026-04-25 18:09 | 53.25646 | 15.56075 | 10244 ft | 236 kts | 327° |
| 2026-04-25 18:09 | 53.27108 | 15.54978 | 10122 ft | 228 kts | 327° |
| 2026-04-25 18:09 | 53.28545 | 15.53908 | 10014 ft | 226 kts | 328° |
| 2026-04-25 18:09 | 53.29015 | 15.53558 | 9979 ft | 228 kts | 327° |
| 2026-04-25 18:10 | 53.30581 | 15.51345 | 9375 ft | 225 kts | 301° |
| 2026-04-25 18:10 | 53.31794 | 15.48483 | 8763 ft | 229 kts | 303° |
| 2026-04-25 18:10 | 53.32718 | 15.46280 | 8331 ft | 231 kts | 303° |
| 2026-04-25 18:10 | 53.33645 | 15.44045 | 7892 ft | 234 kts | 303° |
| 2026-04-25 18:11 | 53.34565 | 15.41804 | 7454 ft | 237 kts | 303° |
| 2026-04-25 18:11 | 53.35505 | 15.39499 | 6992 ft | 240 kts | 303° |
| 2026-04-25 18:11 | 53.36438 | 15.37200 | 6578 ft | 242 kts | 303° |
| 2026-04-25 18:11 | 53.37388 | 15.34850 | 6152 ft | 244 kts | 303° |
| 2026-04-25 18:12 | 53.38339 | 15.32491 | 5787 ft | 243 kts | 303° |
| 2026-04-25 18:12 | 53.39289 | 15.30133 | 5396 ft | 243 kts | 303° |
| 2026-04-25 18:12 | 53.40223 | 15.27812 | 5044 ft | 241 kts | 303° |
| 2026-04-25 18:12 | 53.41142 | 15.25523 | 4695 ft | 231 kts | 303° |
| 2026-04-25 18:13 | 53.42021 | 15.23335 | 4349 ft | 221 kts | 303° |
| 2026-04-25 18:13 | 53.42863 | 15.21235 | 4030 ft | 212 kts | 303° |
| 2026-04-25 18:13 | 53.43665 | 15.19233 | 3768 ft | 201 kts | 302° |
| 2026-04-25 18:14 | 53.45254 | 15.15755 | 3560 ft | 170 kts | 308° |
| 2026-04-25 18:14 | 53.45997 | 15.14315 | 3404 ft | 160 kts | 307° |
| 2026-04-25 18:14 | 53.46722 | 15.12897 | 3030 ft | 161 kts | 307° |
| 2026-04-25 18:14 | 53.47449 | 15.11496 | 2760 ft | 158 kts | 308° |
| 2026-04-25 18:15 | 53.48148 | 15.10162 | 2642 ft | 145 kts | 307° |
| 2026-04-25 18:15 | 53.48802 | 15.08910 | 2557 ft | 142 kts | 307° |
| 2026-04-25 18:15 | 53.49455 | 15.07662 | 2512 ft | 142 kts | 307° |
| 2026-04-25 18:15 | 53.50106 | 15.06411 | 2421 ft | 142 kts | 307° |
| 2026-04-25 18:16 | 53.50754 | 15.05162 | 2255 ft | 142 kts | 307° |
| 2026-04-25 18:16 | 53.51399 | 15.03913 | 2097 ft | 141 kts | 307° |
| 2026-04-25 18:16 | 53.52670 | 15.01458 | 1738 ft | 133 kts | 308° |
| 2026-04-25 18:17 | 53.53265 | 15.00306 | 1565 ft | 128 kts | 307° |
| 2026-04-25 18:17 | 53.53845 | 14.99186 | 1381 ft | 128 kts | 307° |
| 2026-04-25 18:17 | 53.54440 | 14.98033 | 1198 ft | 132 kts | 307° |
| 2026-04-25 18:17 | 53.55041 | 14.96871 | 1000 ft | 134 kts | 306° |
| 2026-04-25 18:18 | 53.55661 | 14.95692 | 869 ft | 134 kts | 307° |
| 2026-04-25 18:18 | 53.56278 | 14.94525 | 684 ft | 133 kts | 306° |
| 2026-04-25 18:18 | 53.56873 | 14.93335 | 462 ft | 132 kts | 305° |
| 2026-04-25 18:18 | 53.57466 | 14.92178 | 268 ft | 127 kts | 307° |
| 2026-04-25 18:19 | 53.58024 | 14.91101 | 165 ft | 112 kts | 306° |
| 2026-04-25 18:19 | 53.58378 | 14.90366 | 153 ft | 53 kts | 313° |
| 2026-04-25 18:19 | 53.58532 | 14.90090 | 149 ft | 21 kts | 313° |
| 2026-04-25 18:19 | 53.58572 | 14.90017 | 148 ft | 3 kts | 313° |
| 2026-04-25 18:20 | 53.58616 | 14.89939 | 147 ft | 15 kts | 312° |
| 2026-04-25 18:20 | 53.58713 | 14.89755 | 143 ft | 27 kts | 310° |
| 2026-04-25 18:20 | 53.58853 | 14.89484 | 141 ft | 34 kts | 311° |
| 2026-04-25 18:20 | 53.58996 | 14.89209 | 138 ft | 20 kts | 311° |
| 2026-04-25 18:21 | 53.59078 | 14.89132 | 136 ft | 12 kts | 18° |
| 2026-04-25 18:21 | 53.59128 | 14.89197 | 134 ft | 0 kts | 42° |
| 2026-04-25 18:22 | 53.59129 | 14.89197 | 134 ft | 1 kts | 42° |
| 2026-04-25 18:22 | 53.59152 | 14.89230 | 134 ft | 9 kts | 32° |
| 2026-04-25 18:23 | 53.59193 | 14.89239 | 134 ft | 8 kts | 355° |
| 2026-04-25 18:23 | 53.59247 | 14.89276 | 134 ft | 10 kts | 40° |
| 2026-04-25 18:23 | 53.59281 | 14.89326 | 134 ft | 0 kts | 41° |